sensor_id;sensor_type;location;lat;lon;timestamp;P1;durP1;ratioP1;P2;durP2;ratioP2
6348;SDS011;3207;42.648;23.406;2023-12-28T00:02:10;34.97;;;23.27;;
6348;SDS011;3207;42.648;23.406;2023-12-28T00:04:38;39.03;;;22.30;;
6348;SDS011;3207;42.648;23.406;2023-12-28T00:07:06;34.93;;;23.83;;
6348;SDS011;3207;42.648;23.406;2023-12-28T00:09:32;33.67;;;22.20;;
6348;SDS011;3207;42.648;23.406;2023-12-28T00:11:59;38.63;;;23.13;;
6348;SDS011;3207;42.648;23.406;2023-12-28T00:14:26;34.43;;;22.77;;
6348;SDS011;3207;42.648;23.406;2023-12-28T00:16:53;32.93;;;22.30;;
6348;SDS011;3207;42.648;23.406;2023-12-28T00:19:19;33.10;;;21.53;;
6348;SDS011;3207;42.648;23.406;2023-12-28T00:21:46;33.17;;;21.63;;
6348;SDS011;3207;42.648;23.406;2023-12-28T00:24:14;29.43;;;22.33;;
6348;SDS011;3207;42.648;23.406;2023-12-28T00:26:41;35.10;;;23.67;;
6348;SDS011;3207;42.648;23.406;2023-12-28T00:29:08;34.60;;;21.30;;
6348;SDS011;3207;42.648;23.406;2023-12-28T00:31:34;32.33;;;23.73;;
6348;SDS011;3207;42.648;23.406;2023-12-28T00:34:01;34.07;;;24.10;;
6348;SDS011;3207;42.648;23.406;2023-12-28T00:36:28;40.20;;;24.27;;
6348;SDS011;3207;42.648;23.406;2023-12-28T00:38:54;33.67;;;23.23;;
6348;SDS011;3207;42.648;23.406;2023-12-28T00:41:22;34.03;;;23.10;;
6348;SDS011;3207;42.648;23.406;2023-12-28T00:43:49;35.90;;;22.73;;
6348;SDS011;3207;42.648;23.406;2023-12-28T00:46:15;26.77;;;19.73;;
6348;SDS011;3207;42.648;23.406;2023-12-28T00:48:42;34.20;;;21.60;;
6348;SDS011;3207;42.648;23.406;2023-12-28T00:51:09;31.03;;;21.03;;
6348;SDS011;3207;42.648;23.406;2023-12-28T00:53:35;30.10;;;20.83;;
6348;SDS011;3207;42.648;23.406;2023-12-28T00:56:02;29.50;;;20.63;;
6348;SDS011;3207;42.648;23.406;2023-12-28T00:58:30;26.97;;;18.93;;
6348;SDS011;3207;42.648;23.406;2023-12-28T01:00:57;33.83;;;19.83;;
6348;SDS011;3207;42.648;23.406;2023-12-28T01:03:23;28.80;;;17.40;;
6348;SDS011;3207;42.648;23.406;2023-12-28T01:05:50;25.13;;;18.30;;
6348;SDS011;3207;42.648;23.406;2023-12-28T01:08:18;26.27;;;18.13;;
6348;SDS011;3207;42.648;23.406;2023-12-28T01:10:44;26.53;;;18.13;;
6348;SDS011;3207;42.648;23.406;2023-12-28T01:13:11;27.67;;;18.37;;
6348;SDS011;3207;42.648;23.406;2023-12-28T01:15:39;27.37;;;18.40;;
6348;SDS011;3207;42.648;23.406;2023-12-28T01:18:06;31.07;;;19.70;;
6348;SDS011;3207;42.648;23.406;2023-12-28T01:20:32;33.47;;;19.27;;
6348;SDS011;3207;42.648;23.406;2023-12-28T01:23:00;30.60;;;19.90;;
6348;SDS011;3207;42.648;23.406;2023-12-28T01:25:26;30.77;;;20.37;;
6348;SDS011;3207;42.648;23.406;2023-12-28T01:27:53;28.47;;;18.33;;
6348;SDS011;3207;42.648;23.406;2023-12-28T01:30:19;27.73;;;18.93;;
6348;SDS011;3207;42.648;23.406;2023-12-28T01:32:47;25.13;;;16.93;;
6348;SDS011;3207;42.648;23.406;2023-12-28T01:35:14;26.90;;;16.37;;
6348;SDS011;3207;42.648;23.406;2023-12-28T01:37:41;23.97;;;16.47;;
6348;SDS011;3207;42.648;23.406;2023-12-28T01:40:08;25.83;;;17.20;;
6348;SDS011;3207;42.648;23.406;2023-12-28T01:42:35;21.73;;;15.13;;
6348;SDS011;3207;42.648;23.406;2023-12-28T01:45:02;27.00;;;15.73;;
6348;SDS011;3207;42.648;23.406;2023-12-28T01:47:28;26.70;;;17.13;;
6348;SDS011;3207;42.648;23.406;2023-12-28T01:49:56;24.60;;;15.97;;
6348;SDS011;3207;42.648;23.406;2023-12-28T01:52:24;22.93;;;16.30;;
6348;SDS011;3207;42.648;23.406;2023-12-28T01:54:50;23.60;;;15.90;;
6348;SDS011;3207;42.648;23.406;2023-12-28T01:57:17;19.50;;;14.50;;
6348;SDS011;3207;42.648;23.406;2023-12-28T01:59:44;23.43;;;15.60;;
6348;SDS011;3207;42.648;23.406;2023-12-28T02:02:11;24.03;;;15.40;;
6348;SDS011;3207;42.648;23.406;2023-12-28T02:04:37;26.30;;;13.73;;
6348;SDS011;3207;42.648;23.406;2023-12-28T02:07:06;21.60;;;14.50;;
6348;SDS011;3207;42.648;23.406;2023-12-28T02:09:33;21.53;;;14.53;;
6348;SDS011;3207;42.648;23.406;2023-12-28T02:11:59;21.80;;;14.37;;
6348;SDS011;3207;42.648;23.406;2023-12-28T02:14:26;19.03;;;13.23;;
6348;SDS011;3207;42.648;23.406;2023-12-28T02:16:54;28.00;;;14.63;;
6348;SDS011;3207;42.648;23.406;2023-12-28T02:19:25;19.67;;;13.97;;
6348;SDS011;3207;42.648;23.406;2023-12-28T02:21:56;19.57;;;13.83;;
6348;SDS011;3207;42.648;23.406;2023-12-28T02:24:25;22.87;;;14.40;;
6348;SDS011;3207;42.648;23.406;2023-12-28T02:26:53;26.47;;;14.37;;
6348;SDS011;3207;42.648;23.406;2023-12-28T02:29:20;26.03;;;15.27;;
6348;SDS011;3207;42.648;23.406;2023-12-28T02:31:49;21.43;;;14.73;;
6348;SDS011;3207;42.648;23.406;2023-12-28T02:34:19;18.27;;;14.13;;
6348;SDS011;3207;42.648;23.406;2023-12-28T02:36:47;20.13;;;13.97;;
6348;SDS011;3207;42.648;23.406;2023-12-28T02:39:14;22.37;;;14.90;;
6348;SDS011;3207;42.648;23.406;2023-12-28T02:41:41;19.90;;;14.53;;
6348;SDS011;3207;42.648;23.406;2023-12-28T02:44:09;20.30;;;13.97;;
6348;SDS011;3207;42.648;23.406;2023-12-28T02:46:36;24.67;;;15.70;;
6348;SDS011;3207;42.648;23.406;2023-12-28T02:49:02;24.13;;;16.47;;
6348;SDS011;3207;42.648;23.406;2023-12-28T02:51:29;23.83;;;15.90;;
6348;SDS011;3207;42.648;23.406;2023-12-28T02:53:55;26.87;;;16.00;;
6348;SDS011;3207;42.648;23.406;2023-12-28T02:56:22;21.37;;;15.93;;
6348;SDS011;3207;42.648;23.406;2023-12-28T02:58:49;23.20;;;14.90;;
6348;SDS011;3207;42.648;23.406;2023-12-28T03:01:17;19.53;;;13.27;;
6348;SDS011;3207;42.648;23.406;2023-12-28T03:03:43;20.87;;;14.97;;
6348;SDS011;3207;42.648;23.406;2023-12-28T03:06:10;20.50;;;14.23;;
6348;SDS011;3207;42.648;23.406;2023-12-28T03:08:37;21.30;;;15.80;;
6348;SDS011;3207;42.648;23.406;2023-12-28T03:11:03;25.33;;;16.20;;
6348;SDS011;3207;42.648;23.406;2023-12-28T03:13:30;25.60;;;16.63;;
6348;SDS011;3207;42.648;23.406;2023-12-28T03:15:57;26.73;;;15.27;;
6348;SDS011;3207;42.648;23.406;2023-12-28T03:18:25;23.53;;;14.77;;
6348;SDS011;3207;42.648;23.406;2023-12-28T03:20:52;23.13;;;16.23;;
6348;SDS011;3207;42.648;23.406;2023-12-28T03:23:18;18.83;;;13.87;;
6348;SDS011;3207;42.648;23.406;2023-12-28T03:25:45;21.83;;;14.63;;
6348;SDS011;3207;42.648;23.406;2023-12-28T03:28:12;26.07;;;15.37;;
6348;SDS011;3207;42.648;23.406;2023-12-28T03:30:38;21.60;;;13.83;;
6348;SDS011;3207;42.648;23.406;2023-12-28T03:33:05;20.93;;;14.70;;
6348;SDS011;3207;42.648;23.406;2023-12-28T03:35:33;20.57;;;13.60;;
6348;SDS011;3207;42.648;23.406;2023-12-28T03:37:59;19.90;;;13.63;;
6348;SDS011;3207;42.648;23.406;2023-12-28T03:40:26;20.13;;;14.27;;
6348;SDS011;3207;42.648;23.406;2023-12-28T03:42:53;19.90;;;13.80;;
6348;SDS011;3207;42.648;23.406;2023-12-28T03:45:20;23.37;;;14.97;;
6348;SDS011;3207;42.648;23.406;2023-12-28T03:47:46;18.60;;;13.37;;
6348;SDS011;3207;42.648;23.406;2023-12-28T03:50:13;19.40;;;14.03;;
6348;SDS011;3207;42.648;23.406;2023-12-28T03:52:41;20.30;;;13.40;;
6348;SDS011;3207;42.648;23.406;2023-12-28T03:55:08;18.33;;;12.27;;
6348;SDS011;3207;42.648;23.406;2023-12-28T03:57:34;15.83;;;12.73;;
6348;SDS011;3207;42.648;23.406;2023-12-28T04:00:01;17.17;;;11.83;;
6348;SDS011;3207;42.648;23.406;2023-12-28T04:02:28;22.03;;;11.47;;
6348;SDS011;3207;42.648;23.406;2023-12-28T04:04:56;14.63;;;10.77;;
6348;SDS011;3207;42.648;23.406;2023-12-28T04:07:23;14.77;;;10.97;;
6348;SDS011;3207;42.648;23.406;2023-12-28T04:09:51;17.30;;;12.27;;
6348;SDS011;3207;42.648;23.406;2023-12-28T04:12:18;16.93;;;11.77;;
6348;SDS011;3207;42.648;23.406;2023-12-28T04:14:45;14.50;;;9.07;;
6348;SDS011;3207;42.648;23.406;2023-12-28T04:17:12;15.23;;;10.13;;
6348;SDS011;3207;42.648;23.406;2023-12-28T04:19:38;13.33;;;9.83;;
6348;SDS011;3207;42.648;23.406;2023-12-28T04:22:05;14.97;;;9.73;;
6348;SDS011;3207;42.648;23.406;2023-12-28T04:24:31;15.80;;;9.60;;
6348;SDS011;3207;42.648;23.406;2023-12-28T04:26:59;12.37;;;10.00;;
6348;SDS011;3207;42.648;23.406;2023-12-28T04:29:26;14.23;;;9.03;;
6348;SDS011;3207;42.648;23.406;2023-12-28T04:31:53;13.87;;;8.67;;
6348;SDS011;3207;42.648;23.406;2023-12-28T04:34:19;16.50;;;9.37;;
6348;SDS011;3207;42.648;23.406;2023-12-28T04:36:46;13.97;;;8.80;;
6348;SDS011;3207;42.648;23.406;2023-12-28T04:39:14;10.67;;;8.20;;
6348;SDS011;3207;42.648;23.406;2023-12-28T04:41:40;13.10;;;8.60;;
6348;SDS011;3207;42.648;23.406;2023-12-28T04:44:08;12.37;;;8.43;;
6348;SDS011;3207;42.648;23.406;2023-12-28T04:46:37;13.17;;;9.20;;
6348;SDS011;3207;42.648;23.406;2023-12-28T04:49:05;20.90;;;10.20;;
6348;SDS011;3207;42.648;23.406;2023-12-28T04:51:31;14.70;;;8.30;;
6348;SDS011;3207;42.648;23.406;2023-12-28T04:53:58;10.53;;;8.50;;
6348;SDS011;3207;42.648;23.406;2023-12-28T04:56:25;13.07;;;9.00;;
6348;SDS011;3207;42.648;23.406;2023-12-28T04:58:51;14.30;;;9.00;;
6348;SDS011;3207;42.648;23.406;2023-12-28T05:01:19;14.73;;;8.50;;
6348;SDS011;3207;42.648;23.406;2023-12-28T05:03:46;16.17;;;8.90;;
6348;SDS011;3207;42.648;23.406;2023-12-28T05:06:12;14.83;;;9.13;;
6348;SDS011;3207;42.648;23.406;2023-12-28T05:08:39;13.47;;;9.50;;
6348;SDS011;3207;42.648;23.406;2023-12-28T05:11:06;15.33;;;10.63;;
6348;SDS011;3207;42.648;23.406;2023-12-28T05:13:32;16.10;;;10.13;;
6348;SDS011;3207;42.648;23.406;2023-12-28T05:16:00;15.93;;;10.57;;
6348;SDS011;3207;42.648;23.406;2023-12-28T05:18:28;13.73;;;10.90;;
6348;SDS011;3207;42.648;23.406;2023-12-28T05:20:55;16.63;;;11.40;;
6348;SDS011;3207;42.648;23.406;2023-12-28T05:23:21;17.70;;;10.73;;
6348;SDS011;3207;42.648;23.406;2023-12-28T05:25:48;11.80;;;10.20;;
6348;SDS011;3207;42.648;23.406;2023-12-28T05:28:15;17.57;;;11.03;;
6348;SDS011;3207;42.648;23.406;2023-12-28T05:30:41;14.53;;;10.47;;
6348;SDS011;3207;42.648;23.406;2023-12-28T05:33:08;13.30;;;9.57;;
6348;SDS011;3207;42.648;23.406;2023-12-28T05:35:36;11.53;;;9.17;;
6348;SDS011;3207;42.648;23.406;2023-12-28T05:38:03;14.30;;;9.90;;
6348;SDS011;3207;42.648;23.406;2023-12-28T05:40:30;14.23;;;9.87;;
6348;SDS011;3207;42.648;23.406;2023-12-28T05:42:56;15.70;;;11.00;;
6348;SDS011;3207;42.648;23.406;2023-12-28T05:45:23;15.53;;;11.67;;
6348;SDS011;3207;42.648;23.406;2023-12-28T05:47:50;16.33;;;11.70;;
6348;SDS011;3207;42.648;23.406;2023-12-28T05:50:16;22.33;;;12.23;;
6348;SDS011;3207;42.648;23.406;2023-12-28T05:52:44;21.63;;;13.40;;
6348;SDS011;3207;42.648;23.406;2023-12-28T05:55:11;19.43;;;13.10;;
6348;SDS011;3207;42.648;23.406;2023-12-28T05:57:38;18.43;;;11.63;;
6348;SDS011;3207;42.648;23.406;2023-12-28T06:00:05;15.30;;;11.93;;
6348;SDS011;3207;42.648;23.406;2023-12-28T06:02:32;20.73;;;12.90;;
6348;SDS011;3207;42.648;23.406;2023-12-28T06:04:58;17.00;;;12.87;;
6348;SDS011;3207;42.648;23.406;2023-12-28T06:07:25;17.40;;;11.77;;
6348;SDS011;3207;42.648;23.406;2023-12-28T06:09:53;25.20;;;12.60;;
6348;SDS011;3207;42.648;23.406;2023-12-28T06:12:20;22.27;;;13.37;;
6348;SDS011;3207;42.648;23.406;2023-12-28T06:14:46;17.20;;;11.93;;
6348;SDS011;3207;42.648;23.406;2023-12-28T06:17:13;18.10;;;11.83;;
6348;SDS011;3207;42.648;23.406;2023-12-28T06:19:40;15.77;;;11.10;;
6348;SDS011;3207;42.648;23.406;2023-12-28T06:22:07;22.80;;;12.80;;
6348;SDS011;3207;42.648;23.406;2023-12-28T06:24:37;20.27;;;11.43;;
6348;SDS011;3207;42.648;23.406;2023-12-28T06:27:05;15.60;;;11.00;;
6348;SDS011;3207;42.648;23.406;2023-12-28T06:29:32;15.57;;;10.60;;
6348;SDS011;3207;42.648;23.406;2023-12-28T06:31:59;19.23;;;10.07;;
6348;SDS011;3207;42.648;23.406;2023-12-28T06:34:25;15.03;;;10.00;;
6348;SDS011;3207;42.648;23.406;2023-12-28T06:36:52;13.97;;;10.37;;
6348;SDS011;3207;42.648;23.406;2023-12-28T06:39:18;13.27;;;9.67;;
6348;SDS011;3207;42.648;23.406;2023-12-28T06:41:46;15.00;;;9.90;;
6348;SDS011;3207;42.648;23.406;2023-12-28T06:44:14;12.90;;;9.90;;
6348;SDS011;3207;42.648;23.406;2023-12-28T06:46:41;13.30;;;9.90;;
6348;SDS011;3207;42.648;23.406;2023-12-28T06:49:07;16.77;;;9.60;;
6348;SDS011;3207;42.648;23.406;2023-12-28T06:51:34;13.97;;;9.43;;
6348;SDS011;3207;42.648;23.406;2023-12-28T06:54:01;16.00;;;10.30;;
6348;SDS011;3207;42.648;23.406;2023-12-28T06:56:27;19.27;;;10.53;;
6348;SDS011;3207;42.648;23.406;2023-12-28T06:58:54;11.60;;;8.97;;
6348;SDS011;3207;42.648;23.406;2023-12-28T07:01:22;10.93;;;8.57;;
6348;SDS011;3207;42.648;23.406;2023-12-28T07:03:48;10.87;;;7.73;;
6348;SDS011;3207;42.648;23.406;2023-12-28T07:06:15;11.10;;;8.13;;
6348;SDS011;3207;42.648;23.406;2023-12-28T07:08:42;11.53;;;8.43;;
6348;SDS011;3207;42.648;23.406;2023-12-28T07:11:09;11.07;;;7.93;;
6348;SDS011;3207;42.648;23.406;2023-12-28T07:13:36;11.47;;;8.80;;
6348;SDS011;3207;42.648;23.406;2023-12-28T07:16:02;13.13;;;9.13;;
6348;SDS011;3207;42.648;23.406;2023-12-28T07:18:31;10.02;;;8.50;;
6348;SDS011;3207;42.648;23.406;2023-12-28T07:20:57;12.07;;;9.00;;
6348;SDS011;3207;42.648;23.406;2023-12-28T07:23:25;12.32;;;10.95;;
6348;SDS011;3207;42.648;23.406;2023-12-28T07:25:52;9.82;;;8.45;;
6348;SDS011;3207;42.648;23.406;2023-12-28T07:28:18;11.35;;;8.55;;
6348;SDS011;3207;42.648;23.406;2023-12-28T07:30:45;7.57;;;6.57;;
6348;SDS011;3207;42.648;23.406;2023-12-28T07:33:12;12.63;;;8.15;;
6348;SDS011;3207;42.648;23.406;2023-12-28T07:35:40;11.65;;;8.10;;
6348;SDS011;3207;42.648;23.406;2023-12-28T07:38:06;10.20;;;7.85;;
6348;SDS011;3207;42.648;23.406;2023-12-28T07:40:33;11.55;;;8.98;;
6348;SDS011;3207;42.648;23.406;2023-12-28T07:43:00;11.35;;;8.95;;
6348;SDS011;3207;42.648;23.406;2023-12-28T07:45:27;12.25;;;9.50;;
6348;SDS011;3207;42.648;23.406;2023-12-28T07:47:54;9.30;;;8.30;;
6348;SDS011;3207;42.648;23.406;2023-12-28T07:50:21;10.93;;;9.77;;
6348;SDS011;3207;42.648;23.406;2023-12-28T07:52:49;21.00;;;11.02;;
6348;SDS011;3207;42.648;23.406;2023-12-28T07:55:17;11.90;;;10.63;;
6348;SDS011;3207;42.648;23.406;2023-12-28T07:57:44;12.77;;;11.30;;
6348;SDS011;3207;42.648;23.406;2023-12-28T08:00:12;19.85;;;15.50;;
6348;SDS011;3207;42.648;23.406;2023-12-28T08:02:39;14.85;;;13.43;;
6348;SDS011;3207;42.648;23.406;2023-12-28T08:05:07;17.52;;;13.77;;
6348;SDS011;3207;42.648;23.406;2023-12-28T08:07:34;14.65;;;13.20;;
6348;SDS011;3207;42.648;23.406;2023-12-28T08:10:03;18.10;;;14.50;;
6348;SDS011;3207;42.648;23.406;2023-12-28T08:12:30;12.70;;;11.40;;
6348;SDS011;3207;42.648;23.406;2023-12-28T08:14:58;12.00;;;10.77;;
6348;SDS011;3207;42.648;23.406;2023-12-28T08:17:25;11.45;;;10.18;;
6348;SDS011;3207;42.648;23.406;2023-12-28T08:19:52;10.50;;;9.45;;
6348;SDS011;3207;42.648;23.406;2023-12-28T08:22:20;10.20;;;9.20;;
6348;SDS011;3207;42.648;23.406;2023-12-28T08:24:47;9.98;;;9.15;;
6348;SDS011;3207;42.648;23.406;2023-12-28T08:27:16;10.02;;;8.95;;
6348;SDS011;3207;42.648;23.406;2023-12-28T08:29:43;10.27;;;9.38;;
6348;SDS011;3207;42.648;23.406;2023-12-28T08:32:10;9.30;;;8.40;;
6348;SDS011;3207;42.648;23.406;2023-12-28T08:34:37;9.63;;;8.70;;
6348;SDS011;3207;42.648;23.406;2023-12-28T08:37:04;8.23;;;7.50;;
6348;SDS011;3207;42.648;23.406;2023-12-28T08:39:31;8.73;;;7.35;;
6348;SDS011;3207;42.648;23.406;2023-12-28T08:41:58;8.60;;;7.75;;
6348;SDS011;3207;42.648;23.406;2023-12-28T08:44:26;8.82;;;7.93;;
6348;SDS011;3207;42.648;23.406;2023-12-28T08:46:53;8.32;;;7.60;;
6348;SDS011;3207;42.648;23.406;2023-12-28T08:49:20;9.23;;;8.32;;
6348;SDS011;3207;42.648;23.406;2023-12-28T08:51:48;9.23;;;8.23;;
6348;SDS011;3207;42.648;23.406;2023-12-28T08:54:15;10.30;;;9.30;;
6348;SDS011;3207;42.648;23.406;2023-12-28T08:56:42;8.80;;;7.90;;
6348;SDS011;3207;42.648;23.406;2023-12-28T08:59:09;9.73;;;8.82;;
6348;SDS011;3207;42.648;23.406;2023-12-28T09:01:37;13.90;;;12.50;;
6348;SDS011;3207;42.648;23.406;2023-12-28T09:04:04;9.00;;;8.10;;
6348;SDS011;3207;42.648;23.406;2023-12-28T09:06:31;9.77;;;8.77;;
6348;SDS011;3207;42.648;23.406;2023-12-28T09:08:58;10.63;;;9.60;;
6348;SDS011;3207;42.648;23.406;2023-12-28T09:11:25;10.30;;;9.50;;
6348;SDS011;3207;42.648;23.406;2023-12-28T09:13:54;10.32;;;8.05;;
6348;SDS011;3207;42.648;23.406;2023-12-28T09:16:20;9.07;;;8.15;;
6348;SDS011;3207;42.648;23.406;2023-12-28T09:18:49;9.05;;;8.23;;
6348;SDS011;3207;42.648;23.406;2023-12-28T09:21:16;9.63;;;8.73;;
6348;SDS011;3207;42.648;23.406;2023-12-28T09:23:43;11.40;;;8.10;;
6348;SDS011;3207;42.648;23.406;2023-12-28T09:26:11;10.63;;;9.05;;
6348;SDS011;3207;42.648;23.406;2023-12-28T09:28:38;8.85;;;6.13;;
6348;SDS011;3207;42.648;23.406;2023-12-28T09:31:05;8.52;;;7.78;;
6348;SDS011;3207;42.648;23.406;2023-12-28T09:33:32;9.52;;;8.38;;
6348;SDS011;3207;42.648;23.406;2023-12-28T09:36:02;8.73;;;7.95;;
6348;SDS011;3207;42.648;23.406;2023-12-28T09:38:30;10.68;;;9.63;;
6348;SDS011;3207;42.648;23.406;2023-12-28T09:40:57;11.10;;;9.90;;
6348;SDS011;3207;42.648;23.406;2023-12-28T09:43:31;13.90;;;12.45;;
6348;SDS011;3207;42.648;23.406;2023-12-28T09:46:06;11.55;;;10.35;;
6348;SDS011;3207;42.648;23.406;2023-12-28T09:48:35;10.63;;;9.52;;
6348;SDS011;3207;42.648;23.406;2023-12-28T09:51:05;12.77;;;11.57;;
6348;SDS011;3207;42.648;23.406;2023-12-28T09:53:32;14.05;;;12.50;;
6348;SDS011;3207;42.648;23.406;2023-12-28T09:55:59;10.13;;;9.10;;
6348;SDS011;3207;42.648;23.406;2023-12-28T09:58:28;8.25;;;7.45;;
6348;SDS011;3207;42.648;23.406;2023-12-28T10:00:57;8.63;;;7.72;;
6348;SDS011;3207;42.648;23.406;2023-12-28T10:03:26;8.18;;;7.38;;
6348;SDS011;3207;42.648;23.406;2023-12-28T10:05:53;8.43;;;7.63;;
6348;SDS011;3207;42.648;23.406;2023-12-28T10:08:21;9.68;;;8.77;;
6348;SDS011;3207;42.648;23.406;2023-12-28T10:10:49;7.60;;;6.90;;
6348;SDS011;3207;42.648;23.406;2023-12-28T10:13:19;7.30;;;6.60;;
6348;SDS011;3207;42.648;23.406;2023-12-28T10:15:46;7.50;;;6.88;;
6348;SDS011;3207;42.648;23.406;2023-12-28T10:18:16;8.52;;;7.72;;
6348;SDS011;3207;42.648;23.406;2023-12-28T10:20:48;7.78;;;6.65;;
6348;SDS011;3207;42.648;23.406;2023-12-28T10:23:16;5.38;;;4.88;;
6348;SDS011;3207;42.648;23.406;2023-12-28T10:25:44;5.82;;;3.95;;
6348;SDS011;3207;42.648;23.406;2023-12-28T10:28:11;4.53;;;4.10;;
6348;SDS011;3207;42.648;23.406;2023-12-28T10:30:39;7.80;;;3.75;;
6348;SDS011;3207;42.648;23.406;2023-12-28T10:33:06;6.05;;;3.30;;
6348;SDS011;3207;42.648;23.406;2023-12-28T10:35:33;4.05;;;3.65;;
6348;SDS011;3207;42.648;23.406;2023-12-28T10:38:00;3.90;;;3.60;;
6348;SDS011;3207;42.648;23.406;2023-12-28T10:40:28;4.20;;;3.70;;
6348;SDS011;3207;42.648;23.406;2023-12-28T10:42:59;6.18;;;4.10;;
6348;SDS011;3207;42.648;23.406;2023-12-28T10:45:29;4.65;;;4.25;;
6348;SDS011;3207;42.648;23.406;2023-12-28T10:48:00;3.97;;;3.45;;
6348;SDS011;3207;42.648;23.406;2023-12-28T10:50:34;3.97;;;3.63;;
6348;SDS011;3207;42.648;23.406;2023-12-28T10:53:07;4.57;;;3.63;;
6348;SDS011;3207;42.648;23.406;2023-12-28T10:55:48;3.40;;;3.10;;
6348;SDS011;3207;42.648;23.406;2023-12-28T10:58:30;5.05;;;3.58;;
6348;SDS011;3207;42.648;23.406;2023-12-28T11:01:05;3.30;;;3.00;;
6348;SDS011;3207;42.648;23.406;2023-12-28T11:03:37;4.13;;;3.60;;
6348;SDS011;3207;42.648;23.406;2023-12-28T11:06:05;4.22;;;3.60;;
6348;SDS011;3207;42.648;23.406;2023-12-28T11:08:34;3.63;;;3.33;;
6348;SDS011;3207;42.648;23.406;2023-12-28T11:11:04;4.18;;;3.63;;
6348;SDS011;3207;42.648;23.406;2023-12-28T11:13:34;6.88;;;3.60;;
6348;SDS011;3207;42.648;23.406;2023-12-28T11:16:02;4.25;;;3.00;;
6348;SDS011;3207;42.648;23.406;2023-12-28T11:18:29;4.22;;;3.20;;
6348;SDS011;3207;42.648;23.406;2023-12-28T11:20:56;5.72;;;3.20;;
6348;SDS011;3207;42.648;23.406;2023-12-28T11:23:24;4.38;;;3.83;;
6348;SDS011;3207;42.648;23.406;2023-12-28T11:25:52;6.75;;;3.67;;
6348;SDS011;3207;42.648;23.406;2023-12-28T11:28:18;3.80;;;3.50;;
6348;SDS011;3207;42.648;23.406;2023-12-28T11:30:47;4.72;;;3.42;;
6348;SDS011;3207;42.648;23.406;2023-12-28T11:33:14;3.67;;;3.38;;
6348;SDS011;3207;42.648;23.406;2023-12-28T11:35:41;3.58;;;3.28;;
6348;SDS011;3207;42.648;23.406;2023-12-28T11:38:09;4.43;;;3.50;;
6348;SDS011;3207;42.648;23.406;2023-12-28T11:40:40;7.00;;;4.40;;
6348;SDS011;3207;42.648;23.406;2023-12-28T11:43:15;3.97;;;3.67;;
6348;SDS011;3207;42.648;23.406;2023-12-28T11:45:49;4.72;;;3.53;;
6348;SDS011;3207;42.648;23.406;2023-12-28T11:48:23;3.85;;;3.55;;
6348;SDS011;3207;42.648;23.406;2023-12-28T11:50:52;3.90;;;3.58;;
6348;SDS011;3207;42.648;23.406;2023-12-28T11:53:23;3.38;;;3.08;;
6348;SDS011;3207;42.648;23.406;2023-12-28T11:55:50;5.10;;;4.70;;
6348;SDS011;3207;42.648;23.406;2023-12-28T11:58:17;4.45;;;4.15;;
6348;SDS011;3207;42.648;23.406;2023-12-28T12:00:44;6.50;;;3.97;;
6348;SDS011;3207;42.648;23.406;2023-12-28T12:03:13;4.65;;;4.22;;
6348;SDS011;3207;42.648;23.406;2023-12-28T12:05:40;4.55;;;4.13;;
6348;SDS011;3207;42.648;23.406;2023-12-28T12:08:07;4.55;;;4.03;;
6348;SDS011;3207;42.648;23.406;2023-12-28T12:10:36;7.88;;;4.90;;
6348;SDS011;3207;42.648;23.406;2023-12-28T12:13:03;7.13;;;5.10;;
6348;SDS011;3207;42.648;23.406;2023-12-28T12:15:30;8.07;;;4.45;;
6348;SDS011;3207;42.648;23.406;2023-12-28T12:17:57;4.43;;;4.03;;
6348;SDS011;3207;42.648;23.406;2023-12-28T12:20:26;5.30;;;4.40;;
6348;SDS011;3207;42.648;23.406;2023-12-28T12:22:57;4.70;;;3.72;;
6348;SDS011;3207;42.648;23.406;2023-12-28T12:25:24;5.00;;;4.10;;
6348;SDS011;3207;42.648;23.406;2023-12-28T12:27:51;4.35;;;3.78;;
6348;SDS011;3207;42.648;23.406;2023-12-28T12:30:18;4.35;;;3.95;;
6348;SDS011;3207;42.648;23.406;2023-12-28T12:32:46;4.30;;;3.90;;
6348;SDS011;3207;42.648;23.406;2023-12-28T12:35:13;9.32;;;4.07;;
6348;SDS011;3207;42.648;23.406;2023-12-28T12:37:41;4.45;;;3.95;;
6348;SDS011;3207;42.648;23.406;2023-12-28T12:40:09;6.05;;;4.00;;
6348;SDS011;3207;42.648;23.406;2023-12-28T12:42:37;3.45;;;3.15;;
6348;SDS011;3207;42.648;23.406;2023-12-28T12:45:04;4.03;;;3.60;;
6348;SDS011;3207;42.648;23.406;2023-12-28T12:47:32;3.72;;;3.42;;
6348;SDS011;3207;42.648;23.406;2023-12-28T12:50:00;4.72;;;3.53;;
6348;SDS011;3207;42.648;23.406;2023-12-28T12:52:27;4.10;;;3.70;;
6348;SDS011;3207;42.648;23.406;2023-12-28T12:54:57;4.53;;;3.05;;
6348;SDS011;3207;42.648;23.406;2023-12-28T12:57:24;4.80;;;3.40;;
6348;SDS011;3207;42.648;23.406;2023-12-28T12:59:52;3.85;;;3.50;;
6348;SDS011;3207;42.648;23.406;2023-12-28T13:02:19;5.03;;;3.58;;
6348;SDS011;3207;42.648;23.406;2023-12-28T13:04:50;4.93;;;3.60;;
6348;SDS011;3207;42.648;23.406;2023-12-28T13:07:18;3.08;;;2.88;;
6348;SDS011;3207;42.648;23.406;2023-12-28T13:09:45;4.55;;;3.25;;
6348;SDS011;3207;42.648;23.406;2023-12-28T13:12:13;3.67;;;2.75;;
6348;SDS011;3207;42.648;23.406;2023-12-28T13:14:40;3.00;;;2.70;;
6348;SDS011;3207;42.648;23.406;2023-12-28T13:17:09;3.05;;;2.75;;
6348;SDS011;3207;42.648;23.406;2023-12-28T13:19:36;3.67;;;3.17;;
6348;SDS011;3207;42.648;23.406;2023-12-28T13:22:03;3.50;;;2.90;;
6348;SDS011;3207;42.648;23.406;2023-12-28T13:24:30;3.83;;;3.42;;
6348;SDS011;3207;42.648;23.406;2023-12-28T13:26:57;5.75;;;3.60;;
6348;SDS011;3207;42.648;23.406;2023-12-28T13:29:26;3.05;;;2.75;;
6348;SDS011;3207;42.648;23.406;2023-12-28T13:31:53;4.15;;;3.38;;
6348;SDS011;3207;42.648;23.406;2023-12-28T13:34:19;3.95;;;2.80;;
6348;SDS011;3207;42.648;23.406;2023-12-28T13:36:48;3.35;;;3.13;;
6348;SDS011;3207;42.648;23.406;2023-12-28T13:39:15;3.58;;;2.85;;
6348;SDS011;3207;42.648;23.406;2023-12-28T13:41:42;3.60;;;2.60;;
6348;SDS011;3207;42.648;23.406;2023-12-28T13:44:09;3.00;;;2.63;;
6348;SDS011;3207;42.648;23.406;2023-12-28T13:46:38;4.30;;;2.72;;
6348;SDS011;3207;42.648;23.406;2023-12-28T13:49:05;3.10;;;2.80;;
6348;SDS011;3207;42.648;23.406;2023-12-28T13:51:32;4.60;;;3.45;;
6348;SDS011;3207;42.648;23.406;2023-12-28T13:53:59;2.70;;;2.50;;
6348;SDS011;3207;42.648;23.406;2023-12-28T13:56:26;3.72;;;3.30;;
6348;SDS011;3207;42.648;23.406;2023-12-28T13:58:54;3.17;;;2.88;;
6348;SDS011;3207;42.648;23.406;2023-12-28T14:01:20;4.55;;;2.80;;
6348;SDS011;3207;42.648;23.406;2023-12-28T14:03:49;3.00;;;2.80;;
6348;SDS011;3207;42.648;23.406;2023-12-28T14:06:16;7.30;;;3.58;;
6348;SDS011;3207;42.648;23.406;2023-12-28T14:08:44;3.67;;;3.10;;
6348;SDS011;3207;42.648;23.406;2023-12-28T14:11:11;3.17;;;2.88;;
6348;SDS011;3207;42.648;23.406;2023-12-28T14:13:38;3.45;;;2.58;;
6348;SDS011;3207;42.648;23.406;2023-12-28T14:16:05;2.92;;;2.60;;
6348;SDS011;3207;42.648;23.406;2023-12-28T14:18:33;4.07;;;3.55;;
6348;SDS011;3207;42.648;23.406;2023-12-28T14:21:02;3.65;;;3.28;;
6348;SDS011;3207;42.648;23.406;2023-12-28T14:23:30;3.20;;;2.90;;
6348;SDS011;3207;42.648;23.406;2023-12-28T14:25:57;4.60;;;3.00;;
6348;SDS011;3207;42.648;23.406;2023-12-28T14:28:25;5.70;;;3.67;;
6348;SDS011;3207;42.648;23.406;2023-12-28T14:30:54;3.33;;;3.03;;
6348;SDS011;3207;42.648;23.406;2023-12-28T14:33:22;5.53;;;3.58;;
6348;SDS011;3207;42.648;23.406;2023-12-28T14:35:49;5.00;;;3.40;;
6348;SDS011;3207;42.648;23.406;2023-12-28T14:38:18;4.07;;;3.35;;
6348;SDS011;3207;42.648;23.406;2023-12-28T14:40:45;3.35;;;2.88;;
6348;SDS011;3207;42.648;23.406;2023-12-28T14:43:12;4.78;;;3.35;;
6348;SDS011;3207;42.648;23.406;2023-12-28T14:45:39;3.70;;;3.13;;
6348;SDS011;3207;42.648;23.406;2023-12-28T14:48:06;4.25;;;3.83;;
6348;SDS011;3207;42.648;23.406;2023-12-28T14:50:33;3.65;;;3.35;;